createdAt,value
2023-04-11T00:00:16.667Z,15.43
2023-04-11T00:02:44.743Z,19.20
2023-04-11T00:05:12.173Z,17.00
2023-04-11T00:07:39.744Z,23.40
2023-04-11T00:10:07.930Z,15.32
2023-04-11T00:12:34.988Z,20.05
2023-04-11T00:15:02.197Z,20.55
2023-04-11T00:17:31.488Z,18.45
2023-04-11T00:20:01.326Z,15.60
2023-04-11T00:22:30.240Z,19.52
2023-04-11T00:24:57.654Z,21.70
2023-04-11T00:27:25.182Z,18.17
2023-04-11T00:29:57.615Z,16.63
2023-04-11T00:32:25.084Z,16.70
2023-04-11T00:34:52.600Z,23.88
2023-04-11T00:37:22.222Z,27.05
2023-04-11T00:39:55.720Z,23.38
2023-04-11T00:42:23.104Z,23.13
2023-04-11T00:44:51.024Z,23.90
2023-04-11T00:47:19.052Z,21.55
2023-04-11T00:49:46.369Z,31.25
2023-04-11T00:52:13.537Z,28.38
2023-04-11T00:54:41.068Z,29.98
2023-04-11T00:57:08.617Z,23.42
2023-04-11T00:59:36.268Z,34.90
2023-04-11T01:02:03.461Z,35.92
2023-04-11T01:04:30.538Z,38.42
2023-04-11T01:07:04.056Z,28.77
2023-04-11T01:09:32.978Z,28.55
2023-04-11T01:12:01.118Z,34.40
2023-04-11T01:14:28.499Z,37.67
2023-04-11T01:17:02.306Z,40.30
2023-04-11T01:19:30.572Z,43.97
2023-04-11T01:21:58.253Z,42.40
2023-04-11T01:24:25.735Z,48.30
2023-04-11T01:26:53.277Z,44.40
2023-04-11T01:29:21.251Z,34.55
2023-04-11T01:31:49.632Z,29.77
2023-04-11T01:34:17.594Z,40.08
2023-04-11T01:36:44.647Z,33.65
2023-04-11T01:39:11.940Z,31.00
2023-04-11T01:41:39.613Z,32.38
2023-04-11T01:44:06.994Z,25.67
2023-04-11T01:46:34.525Z,23.10
2023-04-11T01:49:02.412Z,23.48
2023-04-11T01:51:29.836Z,31.35
2023-04-11T01:53:57.246Z,31.10
2023-04-11T01:56:24.625Z,31.05
2023-04-11T01:58:51.776Z,31.00
2023-04-11T02:01:20.015Z,31.02
2023-04-11T02:03:47.777Z,25.75
2023-04-11T02:06:15.832Z,17.42
2023-04-11T02:08:45.985Z,20.85
2023-04-11T02:11:13.728Z,12.73
2023-04-11T02:13:40.796Z,8.55
2023-04-11T02:16:10.029Z,12.00
2023-04-11T02:18:37.353Z,8.82
2023-04-11T02:21:05.590Z,6.20
2023-04-11T02:23:33.681Z,9.00
2023-04-11T02:26:01.772Z,8.13
2023-04-11T02:28:29.584Z,7.22
2023-04-11T02:30:57.111Z,6.07
2023-04-11T02:33:24.226Z,9.88
2023-04-11T02:35:51.958Z,7.60
2023-04-11T02:38:19.513Z,18.13
2023-04-11T02:40:46.716Z,16.80
2023-04-11T02:43:14.244Z,15.10
2023-04-11T02:45:41.904Z,15.07
2023-04-11T02:48:10.718Z,19.23
2023-04-11T02:50:43.256Z,26.50
2023-04-11T02:53:11.599Z,13.65
2023-04-11T02:55:45.743Z,17.17
2023-04-11T02:58:17.702Z,8.13
2023-04-11T03:00:48.931Z,10.93
2023-04-11T03:03:16.957Z,4.50
2023-04-11T03:05:46.809Z,8.13
2023-04-11T03:08:16.913Z,6.72
2023-04-11T03:10:50.399Z,9.70
2023-04-11T03:13:17.754Z,7.60
2023-04-11T03:15:45.473Z,6.22
2023-04-11T03:18:13.838Z,7.72
2023-04-11T03:20:45.406Z,7.70
2023-04-11T03:23:15.314Z,9.43
2023-04-11T03:25:44.271Z,4.53
2023-04-11T03:28:12.503Z,10.38
2023-04-11T03:30:40.879Z,11.65
2023-04-11T03:33:09.920Z,7.00
2023-04-11T03:35:37.174Z,8.68
2023-04-11T03:38:04.459Z,14.18
2023-04-11T03:40:31.906Z,11.63
2023-04-11T03:43:19.440Z,24.75
2023-04-11T03:45:47.172Z,18.52
2023-04-11T03:48:26.396Z,14.60
2023-04-11T03:51:04.564Z,28.65
2023-04-11T03:53:52.346Z,18.58
2023-04-11T03:56:40.561Z,27.30
2023-04-11T03:59:14.313Z,16.42
2023-04-11T04:01:55.900Z,12.05
2023-04-11T04:04:23.288Z,4.95
2023-04-11T04:07:02.284Z,11.07
2023-04-11T04:09:36.560Z,7.70
2023-04-11T04:12:04.760Z,14.43
2023-04-11T04:15:01.364Z,7.93
2023-04-11T04:17:28.667Z,23.40
2023-04-11T04:19:56.480Z,8.85
2023-04-11T04:22:26.290Z,6.68
2023-04-11T04:24:57.890Z,7.95
2023-04-11T04:27:30.603Z,11.80
2023-04-11T04:30:01.702Z,42.72
2023-04-11T04:32:54.372Z,8.80
2023-04-11T04:35:23.004Z,8.48
2023-04-11T04:37:50.682Z,7.88
2023-04-11T04:40:31.711Z,7.45
2023-04-11T04:43:08.824Z,8.23
2023-04-11T04:45:42.171Z,18.63
2023-04-11T04:48:10.222Z,8.77
2023-04-11T04:50:38.287Z,11.77
2023-04-11T04:53:06.820Z,3.40
2023-04-11T04:55:35.890Z,9.55
2023-04-11T04:58:03.839Z,10.90
2023-04-11T05:00:31.288Z,12.52
2023-04-11T05:03:05.270Z,5.93
2023-04-11T05:05:33.278Z,7.55
2023-04-11T05:08:01.022Z,10.40
2023-04-11T05:10:29.715Z,3.28
2023-04-11T05:12:56.788Z,22.80
2023-04-11T05:15:24.463Z,9.43
2023-04-11T05:17:51.674Z,12.30
2023-04-11T05:20:20.032Z,18.33
2023-04-11T05:22:49.991Z,5.72
2023-04-11T05:25:18.849Z,11.45
2023-04-11T05:27:46.487Z,23.48
2023-04-11T05:30:14.386Z,7.13
2023-04-11T05:32:42.840Z,8.40
2023-04-11T05:35:10.772Z,8.15
2023-04-11T05:37:51.490Z,11.40
2023-04-11T05:40:19.046Z,11.60
2023-04-11T05:42:46.147Z,10.77
2023-04-11T05:45:13.548Z,9.77
2023-04-11T05:47:41.318Z,12.98
2023-04-11T05:50:10.053Z,40.20
2023-04-11T05:52:37.199Z,20.73
2023-04-11T05:55:05.724Z,11.93
2023-04-11T05:57:33.082Z,15.50
2023-04-11T06:00:02.095Z,13.65
2023-04-11T06:02:41.620Z,19.98
2023-04-11T06:05:11.462Z,10.07
2023-04-11T06:07:39.368Z,9.75
2023-04-11T06:10:07.605Z,37.88
2023-04-11T06:12:34.767Z,19.48
2023-04-11T06:15:02.322Z,20.08
2023-04-11T06:17:29.800Z,12.75
2023-04-11T06:19:56.817Z,16.88
2023-04-11T06:22:24.208Z,11.00
2023-04-11T06:24:52.055Z,16.15
2023-04-11T06:27:19.212Z,10.25
2023-04-11T06:29:46.694Z,25.80
2023-04-11T06:32:13.739Z,27.92
2023-04-11T06:34:41.379Z,16.25
2023-04-11T06:37:08.938Z,9.18
2023-04-11T06:39:36.028Z,13.70
2023-04-11T06:42:03.505Z,13.63
2023-04-11T06:44:32.872Z,17.42
2023-04-11T06:47:00.070Z,14.85
2023-04-11T06:49:28.570Z,22.23
2023-04-11T06:51:55.845Z,23.40
2023-04-11T06:54:23.432Z,4.40
2023-04-11T06:56:51.526Z,9.07
2023-04-11T06:59:20.037Z,12.85
2023-04-11T07:01:47.392Z,11.95
2023-04-11T07:04:14.971Z,9.52
2023-04-11T07:06:42.512Z,22.02
2023-04-11T07:09:09.840Z,36.15
2023-04-11T07:11:38.709Z,23.25
2023-04-11T07:14:06.003Z,24.73
2023-04-11T07:16:33.369Z,46.95
2023-04-11T07:19:00.623Z,48.95
2023-04-11T07:21:28.412Z,26.40
2023-04-11T07:23:56.438Z,38.55
2023-04-11T07:26:24.033Z,38.97
2023-04-11T07:28:51.073Z,28.58
2023-04-11T07:31:21.681Z,22.00
2023-04-11T07:33:49.062Z,31.38
2023-04-11T07:36:16.656Z,28.45
2023-04-11T07:38:44.011Z,34.55
2023-04-11T07:41:11.040Z,53.55
2023-04-11T07:43:38.297Z,27.98
2023-04-11T07:46:06.699Z,17.17
2023-04-11T07:48:34.066Z,22.45
2023-04-11T07:51:01.314Z,25.65
2023-04-11T07:53:30.895Z,25.13
2023-04-11T07:55:58.287Z,31.88
2023-04-11T07:58:25.366Z,25.40
2023-04-11T08:00:53.332Z,32.70
2023-04-11T08:03:20.935Z,30.55
2023-04-11T08:05:48.154Z,36.90
2023-04-11T08:08:16.319Z,13.07
2023-04-11T08:10:43.590Z,26.35
2023-04-11T08:13:11.322Z,27.10
2023-04-11T08:15:38.750Z,26.42
2023-04-11T08:18:06.456Z,44.25
2023-04-11T08:20:33.518Z,43.35
2023-04-11T08:23:06.178Z,94.07
2023-04-11T08:25:33.756Z,96.75
2023-04-11T08:28:01.100Z,64.82
2023-04-11T08:30:28.283Z,57.72
2023-04-11T08:32:55.720Z,61.72
2023-04-11T08:35:23.401Z,58.20
2023-04-11T08:37:51.046Z,41.72
2023-04-11T08:40:18.304Z,77.18
2023-04-11T08:42:45.742Z,16.08
2023-04-11T08:45:13.405Z,22.33
2023-04-11T08:47:41.981Z,21.95
2023-04-11T08:50:11.249Z,23.17
2023-04-11T08:52:39.180Z,21.00
2023-04-11T08:55:06.526Z,20.40
2023-04-11T08:57:37.760Z,30.75
2023-04-11T09:00:19.195Z,26.92
2023-04-11T09:03:03.416Z,22.98
2023-04-11T09:05:32.213Z,16.75
2023-04-11T09:08:00.717Z,15.43
2023-04-11T09:10:28.198Z,19.35
2023-04-11T09:12:55.729Z,26.15
2023-04-11T09:15:28.729Z,9.50
2023-04-11T09:17:58.178Z,23.73
2023-04-11T09:20:30.345Z,15.57
2023-04-11T09:22:58.783Z,22.13
2023-04-11T09:25:26.191Z,19.33
2023-04-11T09:28:09.740Z,25.73
2023-04-11T09:30:37.268Z,35.78
2023-04-11T09:33:24.312Z,34.45
2023-04-11T09:35:53.442Z,40.00
2023-04-11T09:38:30.830Z,26.75
2023-04-11T09:40:59.293Z,17.65
2023-04-11T09:43:27.152Z,58.22
2023-04-11T09:46:11.554Z,35.92
2023-04-11T09:48:46.658Z,28.33
2023-04-11T09:51:24.398Z,30.48
2023-04-11T09:53:59.895Z,31.13
2023-04-11T09:56:30.982Z,22.02
2023-04-11T09:58:59.582Z,31.52
2023-04-11T10:01:27.530Z,20.00
2023-04-11T10:03:55.620Z,9.82
2023-04-11T10:06:34.014Z,12.93
2023-04-11T10:09:12.003Z,13.30
2023-04-11T10:11:43.500Z,12.95
2023-04-11T10:14:38.513Z,12.60
2023-04-11T10:17:19.780Z,7.03
2023-04-11T10:19:51.111Z,13.15
2023-04-11T10:22:43.534Z,12.00
2023-04-11T10:25:21.616Z,13.85
2023-04-11T10:27:50.426Z,11.35
2023-04-11T10:30:18.266Z,10.05
2023-04-11T10:33:10.603Z,15.27
2023-04-11T10:35:55.919Z,25.58
2023-04-11T10:38:43.062Z,14.93
2023-04-11T10:41:16.490Z,12.68
2023-04-11T10:43:44.342Z,17.42
2023-04-11T10:46:22.250Z,33.42
2023-04-11T10:49:03.744Z,28.13
2023-04-11T10:51:32.597Z,41.60
2023-04-11T10:54:00.529Z,29.58
2023-04-11T10:56:57.642Z,23.23
2023-04-11T10:59:36.288Z,31.00
2023-04-11T11:02:03.635Z,22.10
2023-04-11T11:04:35.024Z,20.42
2023-04-11T11:07:04.303Z,23.13
2023-04-11T11:09:31.674Z,23.83
2023-04-11T11:12:12.187Z,19.58
2023-04-11T11:14:40.890Z,26.17
2023-04-11T11:17:08.989Z,14.00
2023-04-11T11:19:36.693Z,17.50
2023-04-11T11:22:04.445Z,19.73
2023-04-11T11:24:31.965Z,19.20
2023-04-11T11:26:59.502Z,36.45
2023-04-11T11:29:35.742Z,27.25
2023-04-11T11:32:03.569Z,15.20
2023-04-11T11:34:32.915Z,17.73
2023-04-11T11:37:01.560Z,17.58
2023-04-11T11:39:29.691Z,19.20
2023-04-11T11:41:57.482Z,15.68
2023-04-11T11:44:28.940Z,20.17
2023-04-11T11:47:06.929Z,18.27
2023-04-11T11:49:44.839Z,22.30
2023-04-11T11:52:13.177Z,15.48
2023-04-11T11:54:45.224Z,14.68
2023-04-11T11:57:20.052Z,11.43
2023-04-11T11:59:53.649Z,15.27
2023-04-11T12:02:23.555Z,17.33
2023-04-11T12:04:51.453Z,10.13
2023-04-11T12:07:22.892Z,17.73
2023-04-11T12:09:50.864Z,11.57
2023-04-11T12:12:19.171Z,10.40
2023-04-11T12:14:53.850Z,12.73
2023-04-11T12:17:21.139Z,15.65
2023-04-11T12:19:48.304Z,19.73
2023-04-11T12:22:15.722Z,22.65
2023-04-11T12:24:43.157Z,16.08
2023-04-11T12:27:12.550Z,19.33
2023-04-11T12:29:39.644Z,19.88
2023-04-11T12:32:06.970Z,23.48
2023-04-11T12:34:34.034Z,17.63
2023-04-11T12:37:01.519Z,17.83
2023-04-11T12:39:29.299Z,16.17
2023-04-11T12:41:59.737Z,9.20
2023-04-11T12:44:27.453Z,11.27
2023-04-11T12:46:54.621Z,12.98
2023-04-11T12:49:22.277Z,9.15
2023-04-11T12:51:49.760Z,8.90
2023-04-11T12:54:17.213Z,11.18
2023-04-11T12:56:44.441Z,10.00
2023-04-11T12:59:11.600Z,16.65
2023-04-11T13:01:38.810Z,13.07
2023-04-11T13:04:06.770Z,25.60
2023-04-11T13:06:34.113Z,22.17
2023-04-11T13:09:02.038Z,23.70
2023-04-11T13:11:29.651Z,25.52
2023-04-11T13:13:57.066Z,19.38
2023-04-11T13:16:24.657Z,18.77
2023-04-11T13:18:51.909Z,20.25
2023-04-11T13:21:19.441Z,17.65
2023-04-11T13:23:46.510Z,16.00
2023-04-11T13:26:13.868Z,17.65
2023-04-11T13:28:40.947Z,20.48
2023-04-11T13:31:11.219Z,11.90
2023-04-11T13:33:41.664Z,10.70
2023-04-11T13:36:10.032Z,11.52
2023-04-11T13:38:38.664Z,20.45
2023-04-11T13:41:06.532Z,14.85
2023-04-11T13:43:33.873Z,17.90
2023-04-11T13:46:01.318Z,21.40
2023-04-11T13:48:28.232Z,19.92
2023-04-11T13:50:57.616Z,12.95
2023-04-11T13:53:24.791Z,16.38
2023-04-11T13:55:52.142Z,13.65
2023-04-11T13:58:19.441Z,10.07
2023-04-11T14:00:46.650Z,11.32
2023-04-11T14:03:14.310Z,9.25
2023-04-11T14:05:41.829Z,11.30
2023-04-11T14:08:09.259Z,11.90
2023-04-11T14:10:36.654Z,10.40
2023-04-11T14:13:05.147Z,15.70
2023-04-11T14:15:32.980Z,16.60
2023-04-11T14:18:01.633Z,15.10
2023-04-11T14:20:28.886Z,9.68
2023-04-11T14:22:56.901Z,10.02
2023-04-11T14:25:23.861Z,9.32
2023-04-11T14:27:51.277Z,11.43
2023-04-11T14:30:18.676Z,8.15
2023-04-11T14:32:46.576Z,13.30
2023-04-11T14:35:14.280Z,10.27
2023-04-11T14:37:41.406Z,13.55
2023-04-11T14:40:10.945Z,11.82
2023-04-11T14:42:39.247Z,17.73
2023-04-11T14:45:07.664Z,10.25
2023-04-11T14:47:35.352Z,10.23
2023-04-11T14:50:02.512Z,16.50
2023-04-11T14:52:29.573Z,19.92
2023-04-11T14:54:56.683Z,18.05
2023-04-11T14:57:24.063Z,17.48
2023-04-11T14:59:51.389Z,34.55
2023-04-11T15:02:19.131Z,16.75
2023-04-11T15:04:46.651Z,17.80
2023-04-11T15:07:14.885Z,19.02
2023-04-11T15:09:42.796Z,13.73
2023-04-11T15:12:10.460Z,16.35
2023-04-11T15:14:37.660Z,20.73
2023-04-11T15:17:05.549Z,16.95
2023-04-11T15:19:32.598Z,14.13
2023-04-11T15:22:00.138Z,13.27
2023-04-11T15:24:27.369Z,13.85
2023-04-11T15:26:54.537Z,15.57
2023-04-11T15:29:21.598Z,16.50
2023-04-11T15:31:49.644Z,17.83
2023-04-11T15:34:16.730Z,12.77
2023-04-11T15:36:44.967Z,14.65
2023-04-11T15:39:12.696Z,12.25
2023-04-11T15:41:40.993Z,14.70
2023-04-11T15:44:08.025Z,11.00
2023-04-11T15:46:35.790Z,9.77
2023-04-11T15:49:03.534Z,9.07
2023-04-11T15:51:30.970Z,7.55
2023-04-11T15:53:58.316Z,7.82
2023-04-11T15:56:26.159Z,6.93
2023-04-11T15:58:53.511Z,11.85
2023-04-11T16:01:22.571Z,14.02
2023-04-11T16:03:50.072Z,12.50
2023-04-11T16:06:20.682Z,10.00
2023-04-11T16:08:47.857Z,7.82
2023-04-11T16:11:15.051Z,4.30
2023-04-11T16:13:43.825Z,9.32
2023-04-11T16:16:11.142Z,6.15
2023-04-11T16:18:38.752Z,4.35
2023-04-11T16:21:12.504Z,3.63
2023-04-11T16:23:39.686Z,4.90
2023-04-11T16:26:07.080Z,4.22
2023-04-11T16:28:34.113Z,5.13
2023-04-11T16:31:01.422Z,5.30
2023-04-11T16:33:28.851Z,3.75
2023-04-11T16:35:56.788Z,4.10
2023-04-11T16:38:24.262Z,3.28
2023-04-11T16:40:51.463Z,4.43
2023-04-11T16:43:18.681Z,4.25
2023-04-11T16:45:46.064Z,4.57
2023-04-11T16:48:13.414Z,3.28
2023-04-11T16:50:41.124Z,3.95
2023-04-11T16:53:08.370Z,2.80
2023-04-11T16:55:35.753Z,5.05
2023-04-11T16:58:03.011Z,3.95
2023-04-11T17:00:30.442Z,5.13
2023-04-11T17:02:58.725Z,9.02
2023-04-11T17:05:26.121Z,8.80
2023-04-11T17:07:53.733Z,8.10
2023-04-11T17:10:21.194Z,5.85
2023-04-11T17:12:48.471Z,9.02
2023-04-11T17:15:16.084Z,4.35
2023-04-11T17:17:44.120Z,3.25
2023-04-11T17:20:11.955Z,4.63
2023-04-11T17:22:41.076Z,2.38
2023-04-11T17:25:09.749Z,3.33
2023-04-11T17:27:37.466Z,2.60
2023-04-11T17:30:05.360Z,1.83
2023-04-11T17:32:34.726Z,3.30
2023-04-11T17:35:04.740Z,2.75
2023-04-11T17:37:32.427Z,7.57
2023-04-11T17:40:00.381Z,4.28
2023-04-11T17:42:27.797Z,4.07
2023-04-11T17:44:57.149Z,2.28
2023-04-11T17:47:26.504Z,3.78
2023-04-11T17:49:54.697Z,2.30
2023-04-11T17:52:22.073Z,2.38
2023-04-11T17:54:49.651Z,2.85
2023-04-11T17:57:18.188Z,3.97
2023-04-11T17:59:46.898Z,2.70
2023-04-11T18:02:14.030Z,3.22
2023-04-11T18:04:42.312Z,2.70
2023-04-11T18:07:09.845Z,4.78
2023-04-11T18:09:37.583Z,2.22
2023-04-11T18:12:05.156Z,4.13
2023-04-11T18:14:33.785Z,2.38
2023-04-11T18:17:00.905Z,2.53
2023-04-11T18:19:28.236Z,2.72
2023-04-11T18:21:56.060Z,1.98
2023-04-11T18:24:23.535Z,2.22
2023-04-11T18:26:51.232Z,2.75
2023-04-11T18:29:18.702Z,6.00
2023-04-11T18:31:46.457Z,3.33
2023-04-11T18:34:14.078Z,2.63
2023-04-11T18:36:42.036Z,0.60
2023-04-11T18:39:09.542Z,1.63
2023-04-11T18:41:36.846Z,3.30
2023-04-11T18:44:05.759Z,3.67
2023-04-11T18:46:35.025Z,1.20
2023-04-11T18:49:04.301Z,2.65
2023-04-11T18:51:32.173Z,1.08
2023-04-11T18:53:59.815Z,1.52
2023-04-11T18:56:26.917Z,3.78
2023-04-11T18:58:56.041Z,1.27
2023-04-11T19:01:26.356Z,3.85
2023-04-11T19:03:56.836Z,1.52
2023-04-11T19:06:24.794Z,2.50
2023-04-11T19:08:52.198Z,0.85
2023-04-11T19:11:19.684Z,1.45
2023-04-11T19:13:46.725Z,4.07
2023-04-11T19:16:14.458Z,3.92
2023-04-11T19:18:41.902Z,4.10
2023-04-11T19:21:09.027Z,3.42
2023-04-11T19:23:38.231Z,0.57
2023-04-11T19:26:05.865Z,2.63
2023-04-11T19:28:35.088Z,1.35
2023-04-11T19:31:02.734Z,1.75
2023-04-11T19:33:29.996Z,0.43
2023-04-11T19:35:57.413Z,1.10
2023-04-11T19:38:25.270Z,4.50
2023-04-11T19:40:52.483Z,0.63
2023-04-11T19:43:19.733Z,0.80
2023-04-11T19:45:47.204Z,0.85
2023-04-11T19:48:15.848Z,2.63
2023-04-11T19:50:42.840Z,1.20
2023-04-11T19:53:10.353Z,1.63
2023-04-11T19:55:37.351Z,0.65
2023-04-11T19:58:04.368Z,0.93
2023-04-11T20:00:35.871Z,1.25
2023-04-11T20:03:05.383Z,1.02
2023-04-11T20:05:33.077Z,0.25
2023-04-11T20:08:00.742Z,0.60
2023-04-11T20:10:28.478Z,1.10
2023-04-11T20:12:58.185Z,0.55
2023-04-11T20:15:25.391Z,0.38
2023-04-11T20:17:52.621Z,0.88
2023-04-11T20:20:19.976Z,2.03
2023-04-11T20:22:47.909Z,5.63
2023-04-11T20:25:15.271Z,1.73
2023-04-11T20:27:43.006Z,0.73
2023-04-11T20:30:10.715Z,0.70
2023-04-11T20:32:39.056Z,3.33
2023-04-11T20:35:08.335Z,1.13
2023-04-11T20:37:36.002Z,1.77
2023-04-11T20:40:07.395Z,2.05
2023-04-11T20:42:34.960Z,1.33
2023-04-11T20:45:10.502Z,1.98
2023-04-11T20:47:38.192Z,1.58
2023-04-11T20:50:10.475Z,0.70
2023-04-11T20:52:38.196Z,1.00
2023-04-11T20:55:05.868Z,2.00
2023-04-11T20:57:35.865Z,0.50
2023-04-11T21:00:13.586Z,0.88
2023-04-11T21:02:43.738Z,1.60
2023-04-11T21:05:11.781Z,2.50
2023-04-11T21:07:39.423Z,0.93
2023-04-11T21:10:07.516Z,1.17
2023-04-11T21:12:35.312Z,1.70
2023-04-11T21:15:03.979Z,1.67
2023-04-11T21:17:34.570Z,2.05
2023-04-11T21:20:09.798Z,1.40
2023-04-11T21:22:37.219Z,1.50
2023-04-11T21:25:04.706Z,1.33
2023-04-11T21:27:31.846Z,1.48
2023-04-11T21:29:59.038Z,1.13
2023-04-11T21:32:27.764Z,2.88
2023-04-11T21:34:55.408Z,3.90
2023-04-11T21:37:22.985Z,0.35
2023-04-11T21:39:50.676Z,1.63
2023-04-11T21:42:17.608Z,1.67
2023-04-11T21:44:45.325Z,0.93
2023-04-11T21:47:12.653Z,1.38
2023-04-11T21:49:39.647Z,3.60
2023-04-11T21:52:07.176Z,3.75
2023-04-11T21:54:34.565Z,1.13
2023-04-11T21:57:01.978Z,1.35
2023-04-11T21:59:29.490Z,2.22
2023-04-11T22:01:56.734Z,3.45
2023-04-11T22:04:24.231Z,7.28
2023-04-11T22:06:51.730Z,5.47
2023-04-11T22:09:20.046Z,3.13
2023-04-11T22:11:47.151Z,2.22
2023-04-11T22:14:16.442Z,2.00
2023-04-11T22:16:49.069Z,2.55
2023-04-11T22:19:20.496Z,3.03
2023-04-11T22:21:55.589Z,3.65
2023-04-11T22:24:29.914Z,1.23
2023-04-11T22:27:04.037Z,0.85
2023-04-11T22:29:33.912Z,1.98
2023-04-11T22:32:03.692Z,1.67
2023-04-11T22:34:30.959Z,1.33
2023-04-11T22:36:59.040Z,1.42
2023-04-11T22:39:26.198Z,2.00
2023-04-11T22:41:54.253Z,2.45
2023-04-11T22:44:21.904Z,3.50
2023-04-11T22:47:06.070Z,1.70
2023-04-11T22:49:40.196Z,2.25
2023-04-11T22:52:13.757Z,4.97
2023-04-11T22:54:41.733Z,2.03
2023-04-11T22:57:09.075Z,1.08
2023-04-11T22:59:36.575Z,1.30
2023-04-11T23:02:03.768Z,3.78
2023-04-11T23:04:31.689Z,3.33
2023-04-11T23:06:59.020Z,1.63
2023-04-11T23:09:27.794Z,2.45
2023-04-11T23:11:55.420Z,1.20
2023-04-11T23:14:23.969Z,1.48
2023-04-11T23:16:51.483Z,3.58
2023-04-11T23:19:19.004Z,2.15
2023-04-11T23:21:46.421Z,4.88
2023-04-11T23:24:13.868Z,1.88
2023-04-11T23:26:41.522Z,1.60
2023-04-11T23:29:09.417Z,1.33
2023-04-11T23:31:36.916Z,1.42
2023-04-11T23:34:04.423Z,2.60
2023-04-11T23:36:32.524Z,4.22
2023-04-11T23:39:02.187Z,4.35
2023-04-11T23:41:30.003Z,3.17
2023-04-11T23:43:57.429Z,6.38
2023-04-11T23:46:25.988Z,1.58
2023-04-11T23:48:53.659Z,2.78
2023-04-11T23:51:20.827Z,4.28
2023-04-11T23:53:48.243Z,2.17
2023-04-11T23:56:15.931Z,4.32
2023-04-11T23:58:43.023Z,6.32
